Time;durP1;ratioP1;P1;durP2;ratioP2;P2;SDS_P1;SDS_P2;PMS_P1;PMS_P2;Temp;Humidity;BMP_temperature;BMP_pressure;BME280_temperature;BME280_humidity;BME280_pressure;Samples;Min_cycle;Max_cycle;Signal;HPM_P1;HPM_P2
2023/11/25 00:00:54;;;;;;;4.50;1.40;;;3.60;99.90;;;;;;5093436;28;20511;-83
2023/11/25 00:03:22;;;;;;;5.33;1.60;;;3.60;99.90;;;;;;5091357;28;20465;-82
2023/11/25 00:05:51;;;;;;;4.23;1.53;;;3.60;99.90;;;;;;5099536;28;20456;-80
2023/11/25 00:08:19;;;;;;;3.60;1.20;;;3.50;99.90;;;;;;5100086;28;20459;-81
2023/11/25 00:10:46;;;;;;;2.13;1.20;;;3.50;99.90;;;;;;5098590;28;20466;-81
2023/11/25 00:13:15;;;;;;;2.90;1.60;;;3.50;99.90;;;;;;5096101;28;20456;-81
2023/11/25 00:15:42;;;;;;;2.87;1.53;;;3.50;99.90;;;;;;5098896;28;20828;-81
2023/11/25 00:18:11;;;;;;;2.73;1.53;;;3.50;99.90;;;;;;5098575;28;20495;-81
2023/11/25 00:20:38;;;;;;;3.30;1.43;;;3.60;99.90;;;;;;5090622;28;20547;-81
2023/11/25 00:23:04;;;;;;;5.07;1.70;;;3.60;99.90;;;;;;5099539;28;20836;-80
2023/11/25 00:25:31;;;;;;;3.10;1.23;;;3.70;99.90;;;;;;5099954;28;20475;-81
2023/11/25 00:27:59;;;;;;;7.57;2.40;;;3.70;99.90;;;;;;5096694;28;20475;-80
2023/11/25 00:30:27;;;;;;;6.00;1.67;;;3.70;99.90;;;;;;5093588;28;20447;-82
2023/11/25 00:32:54;;;;;;;4.63;2.33;;;3.70;99.90;;;;;;5098609;28;20451;-81
2023/11/25 00:35:21;;;;;;;6.70;2.37;;;3.70;99.90;;;;;;5097754;28;20461;-81
2023/11/25 00:37:48;;;;;;;6.27;2.60;;;3.80;99.90;;;;;;5098817;28;20503;-80
2023/11/25 00:40:16;;;;;;;5.20;1.77;;;3.80;99.90;;;;;;5099473;28;20466;-82
2023/11/25 00:42:43;;;;;;;7.03;1.93;;;3.80;99.90;;;;;;5098928;28;20464;-82
2023/11/25 00:45:11;;;;;;;2.60;1.13;;;3.80;99.90;;;;;;5097122;28;20546;-81
2023/11/25 00:47:41;;;;;;;3.40;1.00;;;3.80;99.90;;;;;;5097572;28;20469;-81
2023/11/25 00:50:09;;;;;;;3.50;1.10;;;3.90;99.90;;;;;;5091268;28;20458;-79
2023/11/25 00:52:36;;;;;;;3.80;1.57;;;3.90;99.90;;;;;;5098817;28;20457;-82
2023/11/25 00:55:03;;;;;;;3.77;1.20;;;4.00;99.90;;;;;;5098685;28;20459;-81
2023/11/25 00:57:30;;;;;;;3.40;1.37;;;4.00;99.90;;;;;;5097087;28;20497;-80
2023/11/25 00:59:58;;;;;;;3.00;0.90;;;4.00;99.90;;;;;;5095072;28;20469;-82
2023/11/25 01:02:25;;;;;;;3.73;1.03;;;4.00;99.90;;;;;;5097483;28;20472;-81
2023/11/25 01:04:53;;;;;;;3.00;0.97;;;5.30;99.90;;;;;;5097684;28;20456;-81
2023/11/25 01:07:20;;;;;;;3.90;1.10;;;4.10;99.90;;;;;;5098265;28;20506;-81
2023/11/25 01:09:47;;;;;;;2.70;1.10;;;4.10;99.90;;;;;;5098499;28;20512;-82
2023/11/25 01:12:14;;;;;;;5.17;1.37;;;4.50;99.90;;;;;;5097859;28;20467;-81
2023/11/25 01:14:42;;;;;;;5.20;1.70;;;4.20;99.90;;;;;;5097487;28;20452;-81
2023/11/25 01:17:08;;;;;;;4.33;3.40;;;4.20;99.90;;;;;;5099190;28;20585;-81
2023/11/25 01:19:35;;;;;;;4.53;2.00;;;4.20;99.90;;;;;;5099394;28;20535;-80
2023/11/25 01:22:04;;;;;;;3.50;1.87;;;4.30;99.90;;;;;;5098072;28;20549;-80
2023/11/25 01:24:31;;;;;;;2.90;1.10;;;4.30;99.90;;;;;;5099294;28;20456;-81
2023/11/25 01:26:58;;;;;;;3.50;1.40;;;4.20;99.90;;;;;;5101332;28;20474;-81
2023/11/25 01:29:24;;;;;;;7.10;1.63;;;4.10;99.90;;;;;;5104974;28;20461;-81
2023/11/25 01:31:51;;;;;;;2.43;1.43;;;4.00;99.90;;;;;;5102018;28;20464;-81
2023/11/25 01:34:18;;;;;;;1.70;1.03;;;4.60;99.90;;;;;;5102238;28;20548;-81
2023/11/25 01:36:45;;;;;;;2.17;1.10;;;3.90;99.90;;;;;;5101782;28;20507;-81
2023/11/25 01:39:13;;;;;;;7.03;1.13;;;4.00;99.90;;;;;;5102643;28;20553;-81
2023/11/25 01:41:40;;;;;;;3.00;1.10;;;4.90;99.90;;;;;;5104787;28;20443;-81
2023/11/25 01:44:08;;;;;;;7.00;1.37;;;3.70;99.90;;;;;;5101761;28;20479;-81
2023/11/25 01:46:42;;;;;;;3.80;1.10;;;3.70;99.90;;;;;;5101125;28;20466;-81
2023/11/25 01:49:10;;;;;;;4.00;1.30;;;4.40;99.90;;;;;;5100400;28;20466;-81
2023/11/25 01:51:38;;;;;;;4.30;1.10;;;3.50;99.90;;;;;;5101719;28;20510;-82
2023/11/25 01:54:06;;;;;;;7.43;1.50;;;3.40;99.90;;;;;;5101382;28;20458;-81
2023/11/25 01:56:35;;;;;;;5.43;1.20;;;3.40;99.90;;;;;;5100774;28;20487;-80
2023/11/25 01:59:06;;;;;;;8.07;1.73;;;3.30;99.90;;;;;;5098603;28;20840;-81
2023/11/25 02:01:33;;;;;;;3.90;1.60;;;3.30;99.90;;;;;;5099336;28;20462;-82
2023/11/25 02:04:00;;;;;;;5.30;2.00;;;3.20;99.90;;;;;;5099276;28;20467;-81
2023/11/25 02:06:27;;;;;;;6.10;2.23;;;3.10;99.90;;;;;;5098799;28;21016;-81
2023/11/25 02:08:54;;;;;;;4.97;1.73;;;3.10;99.90;;;;;;5098550;28;20587;-80
2023/11/25 02:11:23;;;;;;;2.97;1.37;;;3.10;99.90;;;;;;5098654;28;20458;-81
2023/11/25 02:13:53;;;;;;;4.97;1.60;;;3.00;99.90;;;;;;5098768;28;20548;-80
2023/11/25 02:16:20;;;;;;;4.03;2.00;;;3.00;99.90;;;;;;5098252;28;20490;-80
2023/11/25 02:18:47;;;;;;;6.00;2.23;;;3.00;99.90;;;;;;5098525;28;20612;-81
2023/11/25 02:21:13;;;;;;;6.50;2.00;;;3.00;99.90;;;;;;5099617;28;20525;-81
2023/11/25 02:23:41;;;;;;;5.60;2.03;;;3.00;99.90;;;;;;5098124;28;20483;-80
2023/11/25 02:26:09;;;;;;;6.70;2.20;;;2.90;99.90;;;;;;5098490;28;20562;-81
2023/11/25 02:28:36;;;;;;;9.20;2.97;;;2.90;99.90;;;;;;5096996;28;20446;-81
2023/11/25 02:31:03;;;;;;;5.57;1.80;;;2.90;99.90;;;;;;5097550;28;20454;-81
2023/11/25 02:33:35;;;;;;;5.63;2.03;;;2.90;99.90;;;;;;5090119;28;20998;-81
2023/11/25 02:36:03;;;;;;;6.60;1.83;;;2.80;99.90;;;;;;5097290;28;20453;-81
2023/11/25 02:38:30;;;;;;;6.53;2.53;;;2.90;99.90;;;;;;5095863;28;20567;-81
2023/11/25 02:40:58;;;;;;;5.20;2.00;;;2.80;99.90;;;;;;5096839;28;20455;-81
2023/11/25 02:43:26;;;;;;;7.03;2.43;;;2.80;99.90;;;;;;5096894;28;20462;-80
2023/11/25 02:45:53;;;;;;;4.57;2.20;;;2.60;99.90;;;;;;5097140;28;20489;-81
2023/11/25 02:48:19;;;;;;;6.27;1.50;;;2.60;99.90;;;;;;5097265;28;20451;-81
2023/11/25 02:50:47;;;;;;;5.03;2.30;;;2.70;99.90;;;;;;5098677;28;20488;-81
2023/11/25 02:53:14;;;;;;;7.50;3.40;;;2.60;99.90;;;;;;5098839;28;20476;-80
2023/11/25 02:55:41;;;;;;;8.37;3.30;;;2.60;99.90;;;;;;5098383;28;20538;-81
2023/11/25 02:58:09;;;;;;;6.00;2.90;;;2.60;99.90;;;;;;5098199;28;20585;-81
2023/11/25 03:00:39;;;;;;;9.03;2.60;;;2.60;99.90;;;;;;5096837;28;20450;-80
2023/11/25 03:03:12;;;;;;;6.67;2.80;;;2.70;99.90;;;;;;5097116;28;20453;-81
2023/11/25 03:05:42;;;;;;;4.57;1.90;;;2.60;99.90;;;;;;5097418;28;20540;-80
2023/11/25 03:08:12;;;;;;;8.63;2.80;;;2.60;99.90;;;;;;5097419;28;20475;-80
2023/11/25 03:10:41;;;;;;;6.60;2.07;;;2.70;99.90;;;;;;5097286;28;20497;-80
2023/11/25 03:13:10;;;;;;;9.03;2.37;;;2.70;99.90;;;;;;5096578;28;20456;-79
2023/11/25 03:15:37;;;;;;;13.57;2.70;;;2.70;99.90;;;;;;5097288;28;20450;-81
2023/11/25 03:18:05;;;;;;;11.10;3.93;;;2.60;99.90;;;;;;5090496;28;20498;-80
2023/11/25 03:20:34;;;;;;;8.03;2.60;;;2.60;99.90;;;;;;5101243;28;20825;-79
2023/11/25 03:23:01;;;;;;;4.90;2.50;;;2.60;99.90;;;;;;5103415;28;20463;-79
2023/11/25 03:25:30;;;;;;;8.23;2.33;;;2.50;99.90;;;;;;5102495;28;20450;-79
2023/11/25 03:27:58;;;;;;;5.47;2.43;;;2.50;99.90;;;;;;5102714;28;20470;-79
2023/11/25 03:30:27;;;;;;;12.40;2.97;;;2.50;99.90;;;;;;5102905;28;20474;-79
2023/11/25 03:32:54;;;;;;;7.80;2.10;;;2.50;99.90;;;;;;5101366;28;20446;-80
2023/11/25 03:35:21;;;;;;;7.27;2.50;;;2.50;99.90;;;;;;5096573;28;20476;-81
2023/11/25 03:37:48;;;;;;;6.57;2.57;;;2.50;99.90;;;;;;5096631;28;21024;-80
2023/11/25 03:40:15;;;;;;;7.53;2.20;;;2.50;99.90;;;;;;5095928;28;20459;-80
2023/11/25 03:42:43;;;;;;;10.00;2.80;;;2.60;99.90;;;;;;5095771;28;20933;-81
2023/11/25 03:45:12;;;;;;;11.07;3.20;;;2.60;99.90;;;;;;5095937;28;20454;-81
2023/11/25 03:47:40;;;;;;;6.83;1.70;;;2.60;99.90;;;;;;5095635;28;20557;-79
2023/11/25 03:50:08;;;;;;;8.80;3.00;;;2.60;99.90;;;;;;5095469;28;20542;-81
2023/11/25 03:52:35;;;;;;;6.23;2.80;;;2.70;99.90;;;;;;5096526;28;20494;-81
2023/11/25 03:55:02;;;;;;;11.73;3.53;;;2.80;99.90;;;;;;5096369;28;20462;-81
2023/11/25 03:57:29;;;;;;;12.77;4.50;;;2.90;99.90;;;;;;5095889;28;20497;-81
2023/11/25 03:59:56;;;;;;;8.97;4.43;;;2.90;99.90;;;;;;5096313;28;20453;-82
2023/11/25 04:02:23;;;;;;;11.53;3.37;;;3.50;99.90;;;;;;5091916;28;20470;-81
2023/11/25 04:04:51;;;;;;;8.70;3.03;;;3.10;99.90;;;;;;5097508;28;20474;-81
2023/11/25 04:07:18;;;;;;;7.17;3.00;;;3.20;99.90;;;;;;5097349;28;20467;-80
2023/11/25 04:09:45;;;;;;;9.17;3.27;;;3.40;99.90;;;;;;5096793;28;20509;-82
2023/11/25 04:12:12;;;;;;;11.43;3.03;;;3.40;99.90;;;;;;5096561;28;20873;-81
2023/11/25 04:14:40;;;;;;;17.10;3.57;;;3.50;99.90;;;;;;5096645;28;20907;-81
2023/11/25 04:17:06;;;;;;;8.10;3.17;;;3.60;99.90;;;;;;5095902;28;20474;-81
2023/11/25 04:19:33;;;;;;;10.30;3.53;;;3.60;99.90;;;;;;5095790;28;20448;-81
2023/11/25 04:22:03;;;;;;;9.77;3.47;;;3.50;99.90;;;;;;5096954;28;20474;-82
2023/11/25 04:24:32;;;;;;;9.40;4.17;;;3.60;99.90;;;;;;5096284;28;20491;-81
2023/11/25 04:26:59;;;;;;;8.17;3.17;;;3.50;99.90;;;;;;5095972;28;20478;-81
2023/11/25 04:29:26;;;;;;;10.93;3.33;;;3.50;99.90;;;;;;5096254;28;20460;-81
2023/11/25 04:31:53;;;;;;;7.30;3.20;;;3.50;99.90;;;;;;5094767;28;20515;-81
2023/11/25 04:34:20;;;;;;;7.27;2.13;;;3.40;99.90;;;;;;5096826;28;20473;-81
2023/11/25 04:36:47;;;;;;;8.50;2.40;;;3.40;99.90;;;;;;5095895;28;20482;-81
2023/11/25 04:39:15;;;;;;;12.60;3.63;;;3.40;99.90;;;;;;5095462;28;20494;-81
2023/11/25 04:41:42;;;;;;;13.00;3.67;;;3.40;99.90;;;;;;5096479;28;20455;-81
2023/11/25 04:44:09;;;;;;;8.37;2.80;;;3.30;99.90;;;;;;5096765;28;20459;-81
2023/11/25 04:46:36;;;;;;;5.63;2.63;;;3.30;99.90;;;;;;5096340;28;20474;-81
2023/11/25 04:49:04;;;;;;;7.90;2.97;;;3.30;99.90;;;;;;5095551;28;20459;-81
2023/11/25 04:51:31;;;;;;;9.60;2.80;;;3.20;99.90;;;;;;5096168;28;20462;-81
2023/11/25 04:54:00;;;;;;;10.63;2.90;;;3.10;99.90;;;;;;5095508;28;20548;-81
2023/11/25 04:56:28;;;;;;;8.10;2.50;;;3.10;99.90;;;;;;5095520;28;21015;-81
2023/11/25 04:58:54;;;;;;;6.30;3.70;;;3.10;99.90;;;;;;5094694;28;20581;-80
2023/11/25 05:01:21;;;;;;;6.90;2.60;;;3.10;99.90;;;;;;5097644;28;20450;-80
2023/11/25 05:03:48;;;;;;;11.43;2.80;;;3.20;99.90;;;;;;5098247;28;20466;-81
2023/11/25 05:06:15;;;;;;;8.40;3.10;;;3.20;99.90;;;;;;5099216;28;20477;-81
2023/11/25 05:08:45;;;;;;;11.57;3.70;;;3.20;99.90;;;;;;5098337;28;20442;-81
2023/11/25 05:11:12;;;;;;;8.13;2.40;;;3.30;99.90;;;;;;5099886;28;20942;-81
2023/11/25 05:13:40;;;;;;;18.30;3.23;;;3.40;99.90;;;;;;5098938;28;20514;-81
2023/11/25 05:16:08;;;;;;;8.83;2.87;;;3.40;99.90;;;;;;5099246;28;20462;-81
2023/11/25 05:18:34;;;;;;;11.23;3.00;;;3.50;99.90;;;;;;5098131;28;20483;-82
2023/11/25 05:21:03;;;;;;;11.43;3.63;;;3.50;99.90;;;;;;5098868;28;20455;-82
2023/11/25 05:23:30;;;;;;;10.57;3.50;;;3.50;99.90;;;;;;5099017;28;20883;-81
2023/11/25 05:25:56;;;;;;;9.03;3.90;;;3.50;99.90;;;;;;5098401;28;20460;-81
2023/11/25 05:28:24;;;;;;;14.83;3.23;;;3.60;99.90;;;;;;5098776;28;20825;-82
2023/11/25 05:30:52;;;;;;;8.80;3.10;;;3.70;99.90;;;;;;5098182;28;20465;-82
2023/11/25 05:33:20;;;;;;;13.50;3.93;;;3.70;99.90;;;;;;5098711;28;20824;-82
2023/11/25 05:35:47;;;;;;;21.93;3.60;;;3.80;99.90;;;;;;5098735;28;20463;-81
2023/11/25 05:38:15;;;;;;;12.43;3.47;;;3.80;99.90;;;;;;5098813;28;20491;-81
2023/11/25 05:40:43;;;;;;;10.30;3.20;;;3.90;99.90;;;;;;5098051;28;20455;-81
2023/11/25 05:43:11;;;;;;;18.63;5.20;;;4.00;99.90;;;;;;5099759;28;20538;-81
2023/11/25 05:45:40;;;;;;;8.70;2.80;;;4.10;99.90;;;;;;5100020;28;20856;-80
2023/11/25 05:48:10;;;;;;;7.70;3.13;;;4.10;99.90;;;;;;5099802;28;20475;-80
2023/11/25 05:50:37;;;;;;;11.20;3.30;;;4.20;99.90;;;;;;5099290;28;20452;-81
2023/11/25 05:53:04;;;;;;;8.50;2.60;;;4.30;99.90;;;;;;5099269;28;20480;-79
2023/11/25 05:55:31;;;;;;;12.80;4.00;;;4.30;99.90;;;;;;5100268;28;20651;-81
2023/11/25 05:57:58;;;;;;;6.73;2.53;;;4.30;99.90;;;;;;5099777;28;20496;-81
2023/11/25 06:00:24;;;;;;;15.17;3.40;;;4.60;99.90;;;;;;5099246;28;20453;-81
2023/11/25 06:02:52;;;;;;;14.40;3.67;;;4.40;99.90;;;;;;5097534;28;20465;-81
2023/11/25 06:05:20;;;;;;;9.37;2.57;;;4.40;99.90;;;;;;5094897;28;20462;-82
2023/11/25 06:07:47;;;;;;;9.07;2.80;;;4.40;99.90;;;;;;5100446;28;20888;-81
2023/11/25 06:10:14;;;;;;;17.37;3.63;;;4.70;99.90;;;;;;5103554;28;20973;-83
2023/11/25 06:12:41;;;;;;;8.03;2.60;;;4.50;99.90;;;;;;5099351;28;20474;-80
2023/11/25 06:15:11;;;;;;;10.90;3.17;;;4.50;99.90;;;;;;5098592;28;20472;-80
2023/11/25 06:17:41;;;;;;;12.97;3.17;;;4.50;99.90;;;;;;5089415;28;20567;-80
2023/11/25 06:20:09;;;;;;;12.80;4.23;;;4.50;99.90;;;;;;5092097;28;20447;-80
2023/11/25 06:22:40;;;;;;;15.67;2.97;;;4.50;99.90;;;;;;5096987;28;20447;-81
2023/11/25 06:25:08;;;;;;;10.27;3.60;;;4.50;99.90;;;;;;5095352;28;20536;-82
2023/11/25 06:27:34;;;;;;;15.37;3.43;;;4.60;99.90;;;;;;5095079;28;20480;-81
2023/11/25 06:30:02;;;;;;;11.40;3.47;;;4.70;99.90;;;;;;5096756;28;20461;-82
2023/11/25 06:32:29;;;;;;;15.50;4.20;;;4.60;99.90;;;;;;5099840;28;20455;-82
2023/11/25 06:34:56;;;;;;;13.43;4.10;;;4.50;99.90;;;;;;5098545;28;20494;-81
2023/11/25 06:37:26;;;;;;;12.90;4.80;;;4.50;99.90;;;;;;5094905;28;21066;-82
2023/11/25 06:39:57;;;;;;;7.83;2.87;;;4.50;99.90;;;;;;5092224;28;20484;-82
2023/11/25 06:42:25;;;;;;;11.83;2.73;;;4.50;99.90;;;;;;5097697;28;20459;-82
2023/11/25 06:44:51;;;;;;;5.97;2.50;;;4.50;99.90;;;;;;5096388;28;20483;-82
2023/11/25 06:47:18;;;;;;;17.23;4.37;;;4.50;99.90;;;;;;5094394;28;20471;-82
2023/11/25 06:49:47;;;;;;;11.90;3.07;;;4.50;99.90;;;;;;5093171;28;20538;-81
2023/11/25 06:52:15;;;;;;;12.93;3.50;;;4.50;99.90;;;;;;5098820;28;20471;-82
2023/11/25 06:54:45;;;;;;;8.83;3.40;;;4.50;99.90;;;;;;5099702;28;20897;-82
2023/11/25 06:57:15;;;;;;;6.27;2.07;;;4.40;99.90;;;;;;5099252;28;20469;-82
2023/11/25 06:59:45;;;;;;;10.33;2.50;;;4.40;99.90;;;;;;5099020;28;20484;-81
2023/11/25 07:02:18;;;;;;;9.93;2.90;;;4.40;99.90;;;;;;5099882;28;20828;-81
2023/11/25 07:04:48;;;;;;;13.20;3.17;;;4.30;99.90;;;;;;5096337;28;20446;-81
2023/11/25 07:07:15;;;;;;;11.30;2.07;;;4.40;99.90;;;;;;5099573;28;20508;-82
2023/11/25 07:09:42;;;;;;;6.93;2.63;;;4.40;99.90;;;;;;5097113;28;20450;-82
2023/11/25 07:12:10;;;;;;;11.80;2.50;;;4.30;99.90;;;;;;5097838;28;20458;-83
2023/11/25 07:14:38;;;;;;;7.37;2.07;;;4.30;99.90;;;;;;5099833;28;20466;-83
2023/11/25 07:17:05;;;;;;;5.00;2.30;;;4.30;99.90;;;;;;5099853;28;20461;-82
2023/11/25 07:19:32;;;;;;;7.73;2.30;;;4.30;99.90;;;;;;5099352;28;20516;-80
2023/11/25 07:21:58;;;;;;;7.20;2.10;;;4.30;99.90;;;;;;5100286;28;20522;-82
2023/11/25 07:24:27;;;;;;;7.33;3.03;;;4.30;99.90;;;;;;5100698;28;20543;-83
2023/11/25 07:27:01;;;;;;;6.80;2.73;;;4.30;99.90;;;;;;5100395;28;20537;-83
2023/11/25 07:29:30;;;;;;;19.47;3.30;;;4.30;99.90;;;;;;5098453;28;20443;-82
2023/11/25 07:32:01;;;;;;;5.20;2.27;;;4.40;99.90;;;;;;5099430;28;20457;-82
2023/11/25 07:34:30;;;;;;;8.30;2.03;;;4.40;99.90;;;;;;5099152;28;20460;-82
2023/11/25 07:36:57;;;;;;;7.60;3.40;;;4.50;99.90;;;;;;5099250;28;20484;-83
2023/11/25 07:39:29;;;;;;;5.20;1.93;;;4.60;99.90;;;;;;5094251;28;21053;-82
2023/11/25 07:41:57;;;;;;;4.70;1.83;;;4.70;99.90;;;;;;5095183;28;20457;-82
2023/11/25 07:44:26;;;;;;;12.03;3.93;;;4.70;99.90;;;;;;5098429;28;20453;-82
2023/11/25 07:46:53;;;;;;;8.20;2.10;;;4.70;99.90;;;;;;5098198;28;20471;-81
2023/11/25 07:49:22;;;;;;;8.03;1.70;;;4.70;99.90;;;;;;5098251;28;20552;-82
2023/11/25 07:51:49;;;;;;;5.87;1.70;;;4.70;99.90;;;;;;5100877;28;20452;-82
2023/11/25 07:54:16;;;;;;;6.73;2.00;;;4.70;99.90;;;;;;5099810;28;20532;-82
2023/11/25 07:56:43;;;;;;;7.40;2.63;;;4.70;99.90;;;;;;5099318;28;20472;-81
2023/11/25 07:59:13;;;;;;;13.77;2.60;;;4.80;99.90;;;;;;5102214;28;20504;-82
2023/11/25 08:01:40;;;;;;;9.77;2.83;;;4.80;99.90;;;;;;5099535;28;20459;-81
2023/11/25 08:04:06;;;;;;;5.97;2.60;;;4.80;99.90;;;;;;5100698;28;20495;-81
2023/11/25 08:06:35;;;;;;;9.33;2.73;;;4.90;99.90;;;;;;5099070;28;20477;-81
2023/11/25 08:09:02;;;;;;;16.07;4.40;;;4.90;99.90;;;;;;5098349;28;20491;-80
2023/11/25 08:11:32;;;;;;;10.80;3.10;;;5.00;99.90;;;;;;5099836;28;20464;-80
2023/11/25 08:13:59;;;;;;;11.73;3.53;;;5.00;99.90;;;;;;5099702;28;20495;-80
2023/11/25 08:16:25;;;;;;;11.77;3.60;;;5.00;99.90;;;;;;5099673;28;20474;-80
2023/11/25 08:18:52;;;;;;;9.67;3.63;;;5.00;99.90;;;;;;5097929;28;21023;-80
2023/11/25 08:21:19;;;;;;;7.40;3.17;;;5.00;99.90;;;;;;5100781;28;20492;-80
2023/11/25 08:23:47;;;;;;;14.67;6.50;;;5.00;99.90;;;;;;5099601;28;20457;-80
2023/11/25 08:26:20;;;;;;;14.30;3.90;;;5.00;99.90;;;;;;5100388;28;20475;-81
2023/11/25 08:28:49;;;;;;;19.03;4.90;;;5.00;99.90;;;;;;5099475;28;20461;-81
2023/11/25 08:31:16;;;;;;;8.87;3.93;;;5.10;99.90;;;;;;5099747;28;20473;-81
2023/11/25 08:33:43;;;;;;;7.70;2.60;;;5.10;99.90;;;;;;5099890;28;20525;-81
2023/11/25 08:36:11;;;;;;;11.13;3.30;;;5.10;99.90;;;;;;5101292;28;20487;-82
2023/11/25 08:38:38;;;;;;;7.80;2.83;;;5.20;99.90;;;;;;5103962;28;20579;-81
2023/11/25 08:41:07;;;;;;;9.30;3.67;;;5.20;99.90;;;;;;5100976;28;20460;-79
2023/11/25 08:43:34;;;;;;;3.97;2.10;;;5.20;99.90;;;;;;5095302;28;20481;-83
2023/11/25 08:46:01;;;;;;;9.07;2.57;;;5.30;99.90;;;;;;5100859;28;20509;-82
2023/11/25 08:48:29;;;;;;;11.37;5.43;;;5.30;99.90;;;;;;5099481;28;20535;-82
2023/11/25 08:50:56;;;;;;;10.87;2.93;;;5.30;99.90;;;;;;5096512;28;20469;-82
2023/11/25 08:53:24;;;;;;;12.00;3.07;;;5.50;99.90;;;;;;5102872;28;20490;-81
2023/11/25 08:55:52;;;;;;;5.97;2.53;;;5.70;99.90;;;;;;5103666;28;20476;-81
2023/11/25 08:58:22;;;;;;;11.63;2.60;;;5.80;99.90;;;;;;5099494;28;21073;-82
2023/11/25 09:00:51;;;;;;;10.87;3.60;;;5.70;99.90;;;;;;5098468;28;20536;-82
2023/11/25 09:03:18;;;;;;;8.23;2.20;;;5.80;99.90;;;;;;5094038;28;20477;-81
2023/11/25 09:05:47;;;;;;;7.87;2.53;;;5.90;99.90;;;;;;5101027;28;20536;-82
2023/11/25 09:08:14;;;;;;;6.33;2.67;;;5.90;99.90;;;;;;5099435;28;20556;-81
2023/11/25 09:10:41;;;;;;;4.00;1.77;;;5.90;99.90;;;;;;5091375;28;20463;-82
2023/11/25 09:13:08;;;;;;;7.17;2.10;;;6.10;99.90;;;;;;5102897;28;20544;-80
2023/11/25 09:15:36;;;;;;;4.67;1.37;;;6.10;99.90;;;;;;5097112;28;20481;-83
2023/11/25 09:18:03;;;;;;;3.60;1.43;;;6.20;99.90;;;;;;5102084;28;20495;-82
2023/11/25 09:20:30;;;;;;;3.13;1.53;;;6.30;99.90;;;;;;5101540;28;20530;-82
2023/11/25 09:22:56;;;;;;;4.93;1.83;;;6.20;99.90;;;;;;5100325;28;20471;-82
2023/11/25 09:25:24;;;;;;;9.07;2.13;;;6.10;99.90;;;;;;5098166;28;20541;-83
2023/11/25 09:27:52;;;;;;;4.97;1.37;;;6.00;99.90;;;;;;5098631;28;20471;-82
2023/11/25 09:30:18;;;;;;;2.70;1.23;;;5.90;99.90;;;;;;5096302;28;20461;-82
2023/11/25 09:32:47;;;;;;;6.40;1.50;;;5.80;99.90;;;;;;5100967;28;20488;-82
2023/11/25 09:35:14;;;;;;;4.67;1.43;;;5.80;99.90;;;;;;5102638;28;20449;-82
2023/11/25 09:37:42;;;;;;;3.13;1.57;;;5.90;99.90;;;;;;5102081;28;20531;-82
2023/11/25 09:40:14;;;;;;;4.40;1.70;;;5.90;99.90;;;;;;5096219;28;20519;-83
2023/11/25 09:42:42;;;;;;;4.37;1.73;;;6.00;99.90;;;;;;5099830;28;20459;-81
2023/11/25 09:45:10;;;;;;;7.03;1.83;;;6.20;99.90;;;;;;5103484;28;20453;-83
2023/11/25 09:47:37;;;;;;;11.33;3.20;;;6.40;99.90;;;;;;5095130;28;20863;-81
2023/11/25 09:50:08;;;;;;;3.60;1.40;;;6.60;99.90;;;;;;5097395;28;20467;-82
2023/11/25 09:52:43;;;;;;;6.83;2.07;;;6.70;99.90;;;;;;5102243;28;20468;-81
2023/11/25 09:55:11;;;;;;;8.67;2.07;;;6.50;99.90;;;;;;5102442;28;20525;-81
2023/11/25 09:57:39;;;;;;;3.70;1.53;;;6.50;99.90;;;;;;5099889;28;20472;-81
2023/11/25 10:00:11;;;;;;;3.47;1.60;;;6.70;99.90;;;;;;5097071;28;20561;-81
2023/11/25 10:02:40;;;;;;;5.70;1.90;;;6.90;99.90;;;;;;5097967;28;20461;-81
2023/11/25 10:05:09;;;;;;;8.23;1.90;;;6.80;99.90;;;;;;5099519;28;20492;-82
2023/11/25 10:07:38;;;;;;;5.37;2.07;;;7.00;99.90;;;;;;5099608;28;20534;-83
2023/11/25 10:10:05;;;;;;;2.10;1.23;;;7.00;99.90;;;;;;5101477;28;20446;-83
2023/11/25 10:12:32;;;;;;;5.30;1.93;;;6.80;99.90;;;;;;5115416;28;20461;-80
2023/11/25 10:15:00;;;;;;;7.40;1.83;;;6.70;99.90;;;;;;5113192;28;20450;-80
2023/11/25 10:17:27;;;;;;;6.67;2.60;;;6.50;99.90;;;;;;5108342;28;20541;-81
2023/11/25 10:20:09;;;;;;;6.13;2.77;;;6.30;99.90;;;;;;5115034;28;20493;-82
2023/11/25 10:22:47;;;;;;;8.57;2.67;;;6.10;99.90;;;;;;5110557;28;20457;-82
2023/11/25 10:25:15;;;;;;;7.60;2.20;;;6.00;99.90;;;;;;5112173;28;20481;-81
2023/11/25 10:27:42;;;;;;;11.30;2.10;;;6.00;99.90;;;;;;5113192;28;20450;-81
2023/11/25 10:30:12;;;;;;;10.30;2.90;;;6.00;99.90;;;;;;5118398;28;20449;-81
2023/11/25 10:32:41;;;;;;;5.53;2.80;;;6.00;99.90;;;;;;5115285;28;20497;-83
2023/11/25 10:35:09;;;;;;;9.77;2.37;;;5.80;99.90;;;;;;5112829;28;20496;-82
2023/11/25 10:37:37;;;;;;;8.33;3.07;;;5.90;99.90;;;;;;5118717;27;20520;-83
2023/11/25 10:40:09;;;;;;;4.90;2.47;;;6.10;99.90;;;;;;5115011;28;20497;-82
2023/11/25 10:42:36;;;;;;;5.83;2.60;;;6.10;99.90;;;;;;5118082;28;20488;-82
2023/11/25 10:45:05;;;;;;;5.30;2.63;;;6.10;99.90;;;;;;5109387;28;20462;-82
2023/11/25 10:47:33;;;;;;;4.80;3.43;;;6.10;99.90;;;;;;5113387;28;20541;-82
2023/11/25 10:50:01;;;;;;;9.13;3.20;;;6.10;99.90;;;;;;5118766;28;20466;-82
2023/11/25 10:52:36;;;;;;;5.20;2.10;;;6.20;99.90;;;;;;5117482;28;20434;-82
2023/11/25 10:55:04;;;;;;;9.93;1.87;;;6.30;99.90;;;;;;5113319;28;20437;-82
2023/11/25 10:57:34;;;;;;;6.50;1.87;;;6.50;99.90;;;;;;5111784;28;20457;-81
2023/11/25 11:00:04;;;;;;;13.20;2.43;;;6.50;99.90;;;;;;5109377;28;20509;-81
2023/11/25 11:02:36;;;;;;;4.60;2.13;;;6.70;99.90;;;;;;5117591;28;20463;-82
2023/11/25 11:05:09;;;;;;;3.53;2.50;;;6.80;99.90;;;;;;5118624;27;20458;-82
2023/11/25 11:07:39;;;;;;;6.23;2.10;;;7.10;99.90;;;;;;5118261;28;20470;-84
2023/11/25 11:10:10;;;;;;;10.07;1.93;;;7.50;99.90;;;;;;5115568;28;20442;-82
2023/11/25 11:12:42;;;;;;;9.20;2.77;;;7.80;99.90;;;;;;5118264;27;20438;-82
2023/11/25 11:15:15;;;;;;;9.77;1.70;;;8.20;99.90;;;;;;5112957;28;20431;-81
2023/11/25 11:17:55;;;;;;;10.20;2.53;;;8.40;99.90;;;;;;5112944;28;20456;-81
2023/11/25 11:20:25;;;;;;;4.90;2.00;;;8.50;99.90;;;;;;5114741;28;20552;-81
2023/11/25 11:22:52;;;;;;;6.47;2.73;;;8.10;99.90;;;;;;5113683;28;20474;-82
2023/11/25 11:25:26;;;;;;;7.00;1.83;;;7.80;99.90;;;;;;5115363;28;20423;-82
2023/11/25 11:28:01;;;;;;;4.97;1.93;;;7.70;99.90;;;;;;5114753;28;20446;-81
2023/11/25 11:30:36;;;;;;;11.23;2.17;;;7.50;99.90;;;;;;5109007;28;20436;-81
2023/11/25 11:33:05;;;;;;;8.73;2.10;;;7.30;99.90;;;;;;5111818;28;20469;-82
2023/11/25 11:35:39;;;;;;;8.03;2.47;;;7.30;99.90;;;;;;5118006;28;20449;-82
2023/11/25 11:38:24;;;;;;;5.10;2.50;;;7.20;99.90;;;;;;5112164;28;20454;-82
2023/11/25 11:40:53;;;;;;;7.30;2.50;;;7.30;99.90;;;;;;5110233;28;20478;-80
2023/11/25 11:43:21;;;;;;;4.50;2.30;;;7.50;99.90;;;;;;5115481;27;20432;-82
2023/11/25 11:45:49;;;;;;;5.03;2.40;;;7.70;99.90;;;;;;5115762;28;20470;-81
2023/11/25 11:48:16;;;;;;;8.70;2.13;;;7.80;99.90;;;;;;5113068;28;20529;-81
2023/11/25 11:50:49;;;;;;;5.03;2.13;;;7.90;99.90;;;;;;5117530;28;20457;-81
2023/11/25 11:53:16;;;;;;;6.03;2.27;;;7.90;99.90;;;;;;5114622;28;20538;-81
2023/11/25 11:55:45;;;;;;;6.30;2.13;;;8.10;99.90;;;;;;5112413;28;20439;-80
2023/11/25 11:58:13;;;;;;;4.30;1.70;;;8.30;91.80;;;;;;5110209;28;20516;-82
2023/11/25 12:00:55;;;;;;;3.93;1.80;;;8.30;99.60;;;;;;5115076;28;20483;-80
2023/11/25 12:03:24;;;;;;;8.37;2.93;;;8.20;92.30;;;;;;5113856;28;20460;-80
2023/11/25 12:05:52;;;;;;;5.10;1.60;;;8.30;38.30;;;;;;5116069;28;20496;-80
2023/11/25 12:08:19;;;;;;;4.30;1.53;;;8.20;45.10;;;;;;5114978;28;20459;-81
2023/11/25 12:10:46;;;;;;;7.00;1.90;;;8.00;51.10;;;;;;5116936;28;20456;-81
2023/11/25 12:13:13;;;;;;;4.80;2.27;;;7.90;91.40;;;;;;5117447;28;20427;-81
2023/11/25 12:15:41;;;;;;;3.93;1.90;;;7.70;99.90;;;;;;5113020;28;20490;-79
2023/11/25 12:18:11;;;;;;;6.50;1.70;;;7.50;99.90;;;;;;5115139;28;20475;-85
2023/11/25 12:20:39;;;;;;;4.43;1.50;;;7.30;99.90;;;;;;5114704;28;20547;-84
2023/11/25 12:23:08;;;;;;;3.83;2.00;;;7.20;99.90;;;;;;5111128;28;20517;-84
2023/11/25 12:25:36;;;;;;;4.33;1.63;;;7.10;99.90;;;;;;5103128;28;20455;-81
2023/11/25 12:28:08;;;;;;;3.83;1.63;;;7.10;99.90;;;;;;5111878;28;20455;-81
2023/11/25 12:30:36;;;;;;;3.90;1.33;;;7.10;99.90;;;;;;5112606;28;20445;-81
2023/11/25 12:33:08;;;;;;;7.33;1.70;;;7.20;99.90;;;;;;5116860;28;20455;-80
2023/11/25 12:35:35;;;;;;;6.70;1.60;;;7.20;99.90;;;;;;5110215;28;20447;-79
2023/11/25 12:38:05;;;;;;;11.67;1.23;;;7.20;99.90;;;;;;5115373;28;20464;-79
2023/11/25 12:40:32;;;;;;;2.27;1.40;;;7.10;99.90;;;;;;5115002;28;20488;-80
2023/11/25 12:43:03;;;;;;;2.10;1.10;;;7.10;99.90;;;;;;5116241;28;20434;-81
2023/11/25 12:45:34;;;;;;;2.70;1.20;;;7.10;99.90;;;;;;5114118;28;20435;-79
2023/11/25 12:48:05;;;;;;;5.03;1.97;;;7.20;99.90;;;;;;5115942;28;20450;-80
2023/11/25 12:50:35;;;;;;;2.73;1.03;;;7.20;99.90;;;;;;5109233;28;20446;-81
2023/11/25 12:53:10;;;;;;;4.60;2.07;;;7.20;99.90;;;;;;5107068;28;20428;-82
2023/11/25 12:55:38;;;;;;;2.17;1.40;;;7.30;99.90;;;;;;5106271;28;20447;-80
2023/11/25 12:58:07;;;;;;;3.83;1.70;;;7.30;99.90;;;;;;5104383;28;20454;-82
2023/11/25 13:00:34;;;;;;;4.73;1.10;;;7.30;99.90;;;;;;5112029;28;20479;-83